sensor_id;sensor_type;location;lat;lon;timestamp;P1;durP1;ratioP1;P2;durP2;ratioP2
14316;SDS011;7242;50.858;6.586;2023-12-20T00:02:17;9.40;;;8.40;;
14316;SDS011;7242;50.858;6.586;2023-12-20T00:05:18;10.30;;;8.50;;
14316;SDS011;7242;50.858;6.586;2023-12-20T00:08:19;9.30;;;8.10;;
14316;SDS011;7242;50.858;6.586;2023-12-20T00:11:19;8.80;;;7.53;;
14316;SDS011;7242;50.858;6.586;2023-12-20T00:14:21;9.17;;;7.60;;
14316;SDS011;7242;50.858;6.586;2023-12-20T00:17:22;8.23;;;7.27;;
14316;SDS011;7242;50.858;6.586;2023-12-20T00:20:23;8.47;;;7.20;;
14316;SDS011;7242;50.858;6.586;2023-12-20T00:23:24;9.23;;;7.57;;
14316;SDS011;7242;50.858;6.586;2023-12-20T00:26:26;8.27;;;7.33;;
14316;SDS011;7242;50.858;6.586;2023-12-20T00:29:28;9.03;;;7.60;;
14316;SDS011;7242;50.858;6.586;2023-12-20T00:32:29;10.33;;;8.00;;
14316;SDS011;7242;50.858;6.586;2023-12-20T00:35:30;13.10;;;9.77;;
14316;SDS011;7242;50.858;6.586;2023-12-20T00:38:31;13.27;;;9.43;;
14316;SDS011;7242;50.858;6.586;2023-12-20T00:41:32;11.90;;;9.30;;
14316;SDS011;7242;50.858;6.586;2023-12-20T00:44:33;12.70;;;9.40;;
14316;SDS011;7242;50.858;6.586;2023-12-20T00:47:34;13.77;;;9.97;;
14316;SDS011;7242;50.858;6.586;2023-12-20T00:50:35;13.87;;;10.67;;
14316;SDS011;7242;50.858;6.586;2023-12-20T00:53:36;15.60;;;11.10;;
14316;SDS011;7242;50.858;6.586;2023-12-20T00:56:38;15.17;;;11.27;;
14316;SDS011;7242;50.858;6.586;2023-12-20T00:59:39;14.57;;;11.60;;
14316;SDS011;7242;50.858;6.586;2023-12-20T01:02:40;16.57;;;12.00;;
14316;SDS011;7242;50.858;6.586;2023-12-20T01:05:41;17.60;;;12.63;;
14316;SDS011;7242;50.858;6.586;2023-12-20T01:08:42;16.90;;;13.03;;
14316;SDS011;7242;50.858;6.586;2023-12-20T01:11:43;17.10;;;12.47;;
14316;SDS011;7242;50.858;6.586;2023-12-20T01:14:46;17.20;;;13.77;;
14316;SDS011;7242;50.858;6.586;2023-12-20T01:17:47;18.73;;;14.10;;
14316;SDS011;7242;50.858;6.586;2023-12-20T01:20:49;19.13;;;13.60;;
14316;SDS011;7242;50.858;6.586;2023-12-20T01:23:50;20.20;;;13.23;;
14316;SDS011;7242;50.858;6.586;2023-12-20T01:26:51;19.47;;;13.87;;
14316;SDS011;7242;50.858;6.586;2023-12-20T01:29:52;17.80;;;12.53;;
14316;SDS011;7242;50.858;6.586;2023-12-20T01:32:53;18.97;;;11.93;;
14316;SDS011;7242;50.858;6.586;2023-12-20T01:35:54;17.07;;;10.40;;
14316;SDS011;7242;50.858;6.586;2023-12-20T01:38:55;17.87;;;10.17;;
14316;SDS011;7242;50.858;6.586;2023-12-20T01:41:56;14.67;;;8.33;;
14316;SDS011;7242;50.858;6.586;2023-12-20T01:44:57;16.63;;;6.80;;
14316;SDS011;7242;50.858;6.586;2023-12-20T01:47:59;10.70;;;6.20;;
14316;SDS011;7242;50.858;6.586;2023-12-20T01:51:00;11.33;;;5.37;;
14316;SDS011;7242;50.858;6.586;2023-12-20T01:54:02;9.10;;;3.60;;
14316;SDS011;7242;50.858;6.586;2023-12-20T01:57:05;11.23;;;3.90;;
14316;SDS011;7242;50.858;6.586;2023-12-20T02:00:07;13.07;;;4.10;;
14316;SDS011;7242;50.858;6.586;2023-12-20T02:03:09;11.70;;;3.50;;
14316;SDS011;7242;50.858;6.586;2023-12-20T02:06:11;8.00;;;3.30;;
14316;SDS011;7242;50.858;6.586;2023-12-20T02:09:12;15.70;;;3.57;;
14316;SDS011;7242;50.858;6.586;2023-12-20T02:12:13;9.03;;;3.13;;
14316;SDS011;7242;50.858;6.586;2023-12-20T02:15:14;10.43;;;2.93;;
14316;SDS011;7242;50.858;6.586;2023-12-20T02:18:15;9.73;;;2.70;;
14316;SDS011;7242;50.858;6.586;2023-12-20T02:21:17;8.87;;;3.03;;
14316;SDS011;7242;50.858;6.586;2023-12-20T02:24:17;12.37;;;2.90;;
14316;SDS011;7242;50.858;6.586;2023-12-20T02:27:18;13.17;;;3.20;;
14316;SDS011;7242;50.858;6.586;2023-12-20T02:30:20;10.63;;;2.83;;
14316;SDS011;7242;50.858;6.586;2023-12-20T02:33:21;10.33;;;2.57;;
14316;SDS011;7242;50.858;6.586;2023-12-20T02:36:22;13.27;;;2.83;;
14316;SDS011;7242;50.858;6.586;2023-12-20T02:39:24;9.10;;;2.60;;
14316;SDS011;7242;50.858;6.586;2023-12-20T02:42:24;14.70;;;3.17;;
14316;SDS011;7242;50.858;6.586;2023-12-20T02:45:26;17.83;;;3.23;;
14316;SDS011;7242;50.858;6.586;2023-12-20T02:48:27;12.53;;;2.97;;
14316;SDS011;7242;50.858;6.586;2023-12-20T02:51:29;11.73;;;3.23;;
14316;SDS011;7242;50.858;6.586;2023-12-20T02:54:30;12.37;;;3.13;;
14316;SDS011;7242;50.858;6.586;2023-12-20T02:57:31;12.57;;;3.53;;
14316;SDS011;7242;50.858;6.586;2023-12-20T03:00:33;12.37;;;3.57;;
14316;SDS011;7242;50.858;6.586;2023-12-20T03:03:34;16.50;;;3.90;;
14316;SDS011;7242;50.858;6.586;2023-12-20T03:06:35;13.60;;;3.93;;
14316;SDS011;7242;50.858;6.586;2023-12-20T03:09:36;12.87;;;3.70;;
14316;SDS011;7242;50.858;6.586;2023-12-20T03:12:37;15.23;;;4.27;;
14316;SDS011;7242;50.858;6.586;2023-12-20T03:15:38;16.77;;;4.07;;
14316;SDS011;7242;50.858;6.586;2023-12-20T03:18:40;12.23;;;4.23;;
14316;SDS011;7242;50.858;6.586;2023-12-20T03:21:40;17.57;;;3.90;;
14316;SDS011;7242;50.858;6.586;2023-12-20T03:24:42;17.93;;;4.20;;
14316;SDS011;7242;50.858;6.586;2023-12-20T03:27:43;13.20;;;4.00;;
14316;SDS011;7242;50.858;6.586;2023-12-20T03:30:43;11.77;;;4.07;;
14316;SDS011;7242;50.858;6.586;2023-12-20T03:33:45;13.93;;;3.70;;
14316;SDS011;7242;50.858;6.586;2023-12-20T03:36:46;13.27;;;4.23;;
14316;SDS011;7242;50.858;6.586;2023-12-20T03:39:48;12.83;;;4.17;;
14316;SDS011;7242;50.858;6.586;2023-12-20T03:42:49;13.53;;;4.47;;
14316;SDS011;7242;50.858;6.586;2023-12-20T03:45:50;12.17;;;4.53;;
14316;SDS011;7242;50.858;6.586;2023-12-20T03:48:51;15.90;;;4.77;;
14316;SDS011;7242;50.858;6.586;2023-12-20T03:51:53;14.43;;;4.63;;
14316;SDS011;7242;50.858;6.586;2023-12-20T03:54:54;17.17;;;4.87;;
14316;SDS011;7242;50.858;6.586;2023-12-20T03:57:55;13.60;;;5.07;;
14316;SDS011;7242;50.858;6.586;2023-12-20T04:00:56;18.80;;;5.13;;
14316;SDS011;7242;50.858;6.586;2023-12-20T04:03:57;12.97;;;4.70;;
14316;SDS011;7242;50.858;6.586;2023-12-20T04:06:58;10.23;;;5.20;;
14316;SDS011;7242;50.858;6.586;2023-12-20T04:09:59;18.00;;;5.43;;
14316;SDS011;7242;50.858;6.586;2023-12-20T04:13:00;18.10;;;5.53;;
14316;SDS011;7242;50.858;6.586;2023-12-20T04:16:02;15.43;;;5.63;;
14316;SDS011;7242;50.858;6.586;2023-12-20T04:19:03;19.70;;;5.73;;
14316;SDS011;7242;50.858;6.586;2023-12-20T04:22:04;17.80;;;5.83;;
14316;SDS011;7242;50.858;6.586;2023-12-20T04:25:05;13.27;;;5.83;;
14316;SDS011;7242;50.858;6.586;2023-12-20T04:28:06;17.07;;;5.90;;
14316;SDS011;7242;50.858;6.586;2023-12-20T04:31:08;15.27;;;4.87;;
14316;SDS011;7242;50.858;6.586;2023-12-20T04:34:09;14.40;;;5.00;;
14316;SDS011;7242;50.858;6.586;2023-12-20T04:37:10;16.23;;;5.07;;
14316;SDS011;7242;50.858;6.586;2023-12-20T04:40:11;20.03;;;5.97;;
14316;SDS011;7242;50.858;6.586;2023-12-20T04:43:12;18.73;;;5.73;;
14316;SDS011;7242;50.858;6.586;2023-12-20T04:46:13;11.47;;;5.77;;
14316;SDS011;7242;50.858;6.586;2023-12-20T04:49:14;16.97;;;6.13;;
14316;SDS011;7242;50.858;6.586;2023-12-20T04:52:16;20.57;;;6.67;;
14316;SDS011;7242;50.858;6.586;2023-12-20T04:55:17;16.70;;;6.17;;
14316;SDS011;7242;50.858;6.586;2023-12-20T04:58:18;22.43;;;6.60;;
14316;SDS011;7242;50.858;6.586;2023-12-20T05:01:19;18.03;;;6.40;;
14316;SDS011;7242;50.858;6.586;2023-12-20T05:04:21;15.03;;;6.00;;
14316;SDS011;7242;50.858;6.586;2023-12-20T05:07:23;14.27;;;5.53;;
14316;SDS011;7242;50.858;6.586;2023-12-20T05:10:23;17.60;;;5.63;;
14316;SDS011;7242;50.858;6.586;2023-12-20T05:13:24;16.30;;;5.10;;
14316;SDS011;7242;50.858;6.586;2023-12-20T05:16:25;18.63;;;5.70;;
14316;SDS011;7242;50.858;6.586;2023-12-20T05:19:27;17.30;;;5.73;;
14316;SDS011;7242;50.858;6.586;2023-12-20T05:22:28;20.90;;;5.60;;
14316;SDS011;7242;50.858;6.586;2023-12-20T05:25:30;15.10;;;5.67;;
14316;SDS011;7242;50.858;6.586;2023-12-20T05:28:31;16.33;;;5.53;;
14316;SDS011;7242;50.858;6.586;2023-12-20T05:31:32;13.97;;;4.93;;
14316;SDS011;7242;50.858;6.586;2023-12-20T05:34:33;14.40;;;5.50;;
14316;SDS011;7242;50.858;6.586;2023-12-20T05:37:35;15.23;;;5.33;;
14316;SDS011;7242;50.858;6.586;2023-12-20T05:40:35;17.60;;;5.63;;
14316;SDS011;7242;50.858;6.586;2023-12-20T05:43:37;16.60;;;5.77;;
14316;SDS011;7242;50.858;6.586;2023-12-20T05:46:38;18.47;;;5.70;;
14316;SDS011;7242;50.858;6.586;2023-12-20T05:49:40;21.33;;;6.20;;
14316;SDS011;7242;50.858;6.586;2023-12-20T05:52:41;17.73;;;5.63;;
14316;SDS011;7242;50.858;6.586;2023-12-20T05:55:42;18.63;;;5.90;;
14316;SDS011;7242;50.858;6.586;2023-12-20T05:58:44;15.50;;;5.93;;
14316;SDS011;7242;50.858;6.586;2023-12-20T06:01:45;21.27;;;6.33;;
14316;SDS011;7242;50.858;6.586;2023-12-20T06:04:46;21.80;;;5.87;;
14316;SDS011;7242;50.858;6.586;2023-12-20T06:07:47;16.73;;;5.40;;
14316;SDS011;7242;50.858;6.586;2023-12-20T06:10:50;18.70;;;5.60;;
14316;SDS011;7242;50.858;6.586;2023-12-20T06:13:51;12.87;;;5.03;;
14316;SDS011;7242;50.858;6.586;2023-12-20T06:16:53;19.20;;;5.77;;
14316;SDS011;7242;50.858;6.586;2023-12-20T06:19:54;16.10;;;5.03;;
14316;SDS011;7242;50.858;6.586;2023-12-20T06:22:56;17.33;;;5.07;;
14316;SDS011;7242;50.858;6.586;2023-12-20T06:25:57;19.90;;;5.20;;
14316;SDS011;7242;50.858;6.586;2023-12-20T06:28:58;18.03;;;5.27;;
14316;SDS011;7242;50.858;6.586;2023-12-20T06:31:59;15.93;;;4.90;;
14316;SDS011;7242;50.858;6.586;2023-12-20T06:35:00;15.67;;;5.47;;
14316;SDS011;7242;50.858;6.586;2023-12-20T06:38:02;18.57;;;5.67;;
14316;SDS011;7242;50.858;6.586;2023-12-20T06:41:03;17.07;;;5.03;;
14316;SDS011;7242;50.858;6.586;2023-12-20T06:44:04;18.37;;;5.57;;
14316;SDS011;7242;50.858;6.586;2023-12-20T06:47:05;23.90;;;5.80;;
14316;SDS011;7242;50.858;6.586;2023-12-20T06:50:06;16.37;;;5.07;;
14316;SDS011;7242;50.858;6.586;2023-12-20T06:53:09;16.27;;;5.87;;
14316;SDS011;7242;50.858;6.586;2023-12-20T06:56:10;17.90;;;5.93;;
14316;SDS011;7242;50.858;6.586;2023-12-20T06:59:15;15.30;;;5.67;;
14316;SDS011;7242;50.858;6.586;2023-12-20T07:02:16;17.07;;;5.53;;
14316;SDS011;7242;50.858;6.586;2023-12-20T07:05:18;19.03;;;5.43;;
14316;SDS011;7242;50.858;6.586;2023-12-20T07:08:20;18.13;;;5.43;;
14316;SDS011;7242;50.858;6.586;2023-12-20T07:11:21;14.10;;;5.00;;
14316;SDS011;7242;50.858;6.586;2023-12-20T07:14:23;14.00;;;4.80;;
14316;SDS011;7242;50.858;6.586;2023-12-20T07:17:24;15.20;;;5.30;;
14316;SDS011;7242;50.858;6.586;2023-12-20T07:20:25;15.77;;;5.20;;
14316;SDS011;7242;50.858;6.586;2023-12-20T07:23:26;19.17;;;4.97;;
14316;SDS011;7242;50.858;6.586;2023-12-20T07:26:27;18.00;;;5.17;;
14316;SDS011;7242;50.858;6.586;2023-12-20T07:29:28;12.87;;;4.87;;
14316;SDS011;7242;50.858;6.586;2023-12-20T07:32:29;16.47;;;4.73;;
14316;SDS011;7242;50.858;6.586;2023-12-20T07:35:30;15.50;;;4.87;;
14316;SDS011;7242;50.858;6.586;2023-12-20T07:38:31;12.77;;;4.97;;
14316;SDS011;7242;50.858;6.586;2023-12-20T07:41:32;16.43;;;4.97;;
14316;SDS011;7242;50.858;6.586;2023-12-20T07:44:33;14.63;;;4.70;;
14316;SDS011;7242;50.858;6.586;2023-12-20T07:47:36;14.97;;;4.67;;
14316;SDS011;7242;50.858;6.586;2023-12-20T07:50:36;14.77;;;5.40;;
14316;SDS011;7242;50.858;6.586;2023-12-20T07:53:38;17.43;;;5.33;;
14316;SDS011;7242;50.858;6.586;2023-12-20T07:56:39;18.10;;;5.07;;
14316;SDS011;7242;50.858;6.586;2023-12-20T07:59:40;17.83;;;5.77;;
14316;SDS011;7242;50.858;6.586;2023-12-20T08:02:41;16.90;;;5.60;;
14316;SDS011;7242;50.858;6.586;2023-12-20T08:05:42;11.30;;;4.87;;
14316;SDS011;7242;50.858;6.586;2023-12-20T08:08:43;15.90;;;4.57;;
14316;SDS011;7242;50.858;6.586;2023-12-20T08:11:45;14.63;;;5.27;;
14316;SDS011;7242;50.858;6.586;2023-12-20T08:14:46;18.13;;;5.13;;
14316;SDS011;7242;50.858;6.586;2023-12-20T08:17:47;15.90;;;4.67;;
14316;SDS011;7242;50.858;6.586;2023-12-20T08:20:48;12.87;;;4.67;;
14316;SDS011;7242;50.858;6.586;2023-12-20T08:23:49;16.27;;;5.50;;
14316;SDS011;7242;50.858;6.586;2023-12-20T08:26:50;12.90;;;4.63;;
14316;SDS011;7242;50.858;6.586;2023-12-20T08:29:52;17.53;;;5.00;;
14316;SDS011;7242;50.858;6.586;2023-12-20T08:32:54;15.53;;;4.73;;
14316;SDS011;7242;50.858;6.586;2023-12-20T08:35:54;16.00;;;4.77;;
14316;SDS011;7242;50.858;6.586;2023-12-20T08:38:55;17.47;;;4.83;;
14316;SDS011;7242;50.858;6.586;2023-12-20T08:41:57;14.37;;;4.57;;
14316;SDS011;7242;50.858;6.586;2023-12-20T08:44:58;16.97;;;4.80;;
14316;SDS011;7242;50.858;6.586;2023-12-20T08:47:59;12.13;;;4.13;;
14316;SDS011;7242;50.858;6.586;2023-12-20T08:51:00;15.90;;;4.87;;
14316;SDS011;7242;50.858;6.586;2023-12-20T08:54:01;13.40;;;4.70;;
14316;SDS011;7242;50.858;6.586;2023-12-20T08:57:07;15.77;;;4.43;;
14316;SDS011;7242;50.858;6.586;2023-12-20T09:00:08;11.90;;;4.90;;
14316;SDS011;7242;50.858;6.586;2023-12-20T09:03:10;15.77;;;4.53;;
14316;SDS011;7242;50.858;6.586;2023-12-20T09:06:11;15.93;;;4.50;;
14316;SDS011;7242;50.858;6.586;2023-12-20T09:09:12;13.70;;;4.30;;
14316;SDS011;7242;50.858;6.586;2023-12-20T09:12:19;14.80;;;4.17;;
14316;SDS011;7242;50.858;6.586;2023-12-20T09:15:20;14.93;;;4.27;;
14316;SDS011;7242;50.858;6.586;2023-12-20T09:18:22;14.03;;;4.37;;
14316;SDS011;7242;50.858;6.586;2023-12-20T09:21:23;11.67;;;4.10;;
14316;SDS011;7242;50.858;6.586;2023-12-20T09:24:24;11.57;;;3.50;;
14316;SDS011;7242;50.858;6.586;2023-12-20T09:27:25;14.30;;;4.10;;
14316;SDS011;7242;50.858;6.586;2023-12-20T09:30:26;11.03;;;3.57;;
14316;SDS011;7242;50.858;6.586;2023-12-20T09:33:27;14.30;;;3.50;;
14316;SDS011;7242;50.858;6.586;2023-12-20T09:36:28;13.83;;;3.70;;
14316;SDS011;7242;50.858;6.586;2023-12-20T09:39:31;13.83;;;3.87;;
14316;SDS011;7242;50.858;6.586;2023-12-20T09:42:48;12.30;;;3.23;;
14316;SDS011;7242;50.858;6.586;2023-12-20T09:45:52;12.53;;;4.10;;
14316;SDS011;7242;50.858;6.586;2023-12-20T09:48:55;12.67;;;3.63;;
14316;SDS011;7242;50.858;6.586;2023-12-20T09:51:56;16.53;;;3.90;;
14316;SDS011;7242;50.858;6.586;2023-12-20T09:54:57;12.83;;;3.50;;
14316;SDS011;7242;50.858;6.586;2023-12-20T09:57:59;12.43;;;3.63;;
14316;SDS011;7242;50.858;6.586;2023-12-20T10:01:00;7.70;;;3.07;;
14316;SDS011;7242;50.858;6.586;2023-12-20T10:04:04;13.80;;;3.57;;
14316;SDS011;7242;50.858;6.586;2023-12-20T10:07:09;6.13;;;2.87;;
14316;SDS011;7242;50.858;6.586;2023-12-20T10:10:10;14.63;;;3.30;;
14316;SDS011;7242;50.858;6.586;2023-12-20T10:13:13;12.67;;;3.37;;
14316;SDS011;7242;50.858;6.586;2023-12-20T10:16:15;12.63;;;3.10;;
14316;SDS011;7242;50.858;6.586;2023-12-20T10:19:17;8.70;;;3.10;;
14316;SDS011;7242;50.858;6.586;2023-12-20T10:22:21;12.00;;;3.57;;
14316;SDS011;7242;50.858;6.586;2023-12-20T10:25:22;12.67;;;3.17;;
14316;SDS011;7242;50.858;6.586;2023-12-20T10:28:24;13.03;;;3.60;;
14316;SDS011;7242;50.858;6.586;2023-12-20T10:34:29;11.23;;;3.50;;
14316;SDS011;7242;50.858;6.586;2023-12-20T10:37:39;13.27;;;3.53;;
14316;SDS011;7242;50.858;6.586;2023-12-20T10:40:40;10.57;;;2.90;;
14316;SDS011;7242;50.858;6.586;2023-12-20T10:43:41;10.83;;;3.27;;
14316;SDS011;7242;50.858;6.586;2023-12-20T10:46:42;12.47;;;3.60;;
14316;SDS011;7242;50.858;6.586;2023-12-20T10:49:50;10.93;;;3.07;;
14316;SDS011;7242;50.858;6.586;2023-12-20T10:52:52;11.40;;;3.40;;
14316;SDS011;7242;50.858;6.586;2023-12-20T10:55:56;14.20;;;3.70;;
14316;SDS011;7242;50.858;6.586;2023-12-20T10:58:59;7.40;;;2.60;;
14316;SDS011;7242;50.858;6.586;2023-12-20T11:02:04;15.50;;;3.83;;
14316;SDS011;7242;50.858;6.586;2023-12-20T11:08:36;9.20;;;2.97;;
14316;SDS011;7242;50.858;6.586;2023-12-20T11:15:01;9.33;;;3.00;;
14316;SDS011;7242;50.858;6.586;2023-12-20T11:18:05;8.97;;;3.13;;
14316;SDS011;7242;50.858;6.586;2023-12-20T11:21:06;6.57;;;3.07;;
14316;SDS011;7242;50.858;6.586;2023-12-20T11:24:08;12.40;;;3.00;;
14316;SDS011;7242;50.858;6.586;2023-12-20T11:27:10;12.97;;;2.80;;
14316;SDS011;7242;50.858;6.586;2023-12-20T11:30:11;12.43;;;3.03;;
14316;SDS011;7242;50.858;6.586;2023-12-20T11:33:15;8.57;;;2.93;;
14316;SDS011;7242;50.858;6.586;2023-12-20T11:36:19;14.20;;;3.07;;
14316;SDS011;7242;50.858;6.586;2023-12-20T11:39:21;11.33;;;3.00;;
14316;SDS011;7242;50.858;6.586;2023-12-20T11:42:22;11.13;;;3.00;;
14316;SDS011;7242;50.858;6.586;2023-12-20T11:45:23;12.43;;;2.90;;
14316;SDS011;7242;50.858;6.586;2023-12-20T11:48:26;12.80;;;3.03;;
14316;SDS011;7242;50.858;6.586;2023-12-20T11:51:27;9.57;;;3.07;;
14316;SDS011;7242;50.858;6.586;2023-12-20T11:54:29;11.03;;;3.23;;
14316;SDS011;7242;50.858;6.586;2023-12-20T11:57:31;14.23;;;3.00;;
14316;SDS011;7242;50.858;6.586;2023-12-20T12:00:33;8.03;;;2.80;;
14316;SDS011;7242;50.858;6.586;2023-12-20T12:03:34;9.00;;;3.10;;
14316;SDS011;7242;50.858;6.586;2023-12-20T12:06:35;11.50;;;2.97;;
14316;SDS011;7242;50.858;6.586;2023-12-20T12:09:36;11.33;;;2.93;;
14316;SDS011;7242;50.858;6.586;2023-12-20T12:12:37;11.23;;;3.40;;
14316;SDS011;7242;50.858;6.586;2023-12-20T12:15:37;10.87;;;3.00;;
14316;SDS011;7242;50.858;6.586;2023-12-20T12:18:39;10.93;;;3.20;;
14316;SDS011;7242;50.858;6.586;2023-12-20T12:21:42;11.10;;;3.50;;
14316;SDS011;7242;50.858;6.586;2023-12-20T12:24:43;8.00;;;3.47;;
14316;SDS011;7242;50.858;6.586;2023-12-20T12:27:45;8.23;;;3.47;;
14316;SDS011;7242;50.858;6.586;2023-12-20T12:31:04;9.10;;;3.13;;
14316;SDS011;7242;50.858;6.586;2023-12-20T12:34:04;11.33;;;3.23;;
14316;SDS011;7242;50.858;6.586;2023-12-20T12:37:06;12.00;;;3.53;;
14316;SDS011;7242;50.858;6.586;2023-12-20T12:40:09;9.47;;;3.57;;
14316;SDS011;7242;50.858;6.586;2023-12-20T12:43:11;11.37;;;3.70;;
14316;SDS011;7242;50.858;6.586;2023-12-20T12:46:13;12.27;;;3.27;;
14316;SDS011;7242;50.858;6.586;2023-12-20T12:49:14;12.43;;;3.40;;
14316;SDS011;7242;50.858;6.586;2023-12-20T12:52:15;16.27;;;3.90;;
14316;SDS011;7242;50.858;6.586;2023-12-20T12:55:16;11.43;;;3.50;;
14316;SDS011;7242;50.858;6.586;2023-12-20T12:58:18;9.57;;;3.50;;
14316;SDS011;7242;50.858;6.586;2023-12-20T13:01:19;13.80;;;3.40;;
14316;SDS011;7242;50.858;6.586;2023-12-20T13:04:20;11.50;;;3.53;;
14316;SDS011;7242;50.858;6.586;2023-12-20T13:07:21;14.07;;;3.40;;
14316;SDS011;7242;50.858;6.586;2023-12-20T13:10:23;12.97;;;3.97;;
14316;SDS011;7242;50.858;6.586;2023-12-20T13:13:24;10.60;;;3.63;;
14316;SDS011;7242;50.858;6.586;2023-12-20T13:16:26;11.70;;;3.47;;
14316;SDS011;7242;50.858;6.586;2023-12-20T13:19:27;13.83;;;3.63;;
14316;SDS011;7242;50.858;6.586;2023-12-20T13:22:28;10.60;;;3.17;;
14316;SDS011;7242;50.858;6.586;2023-12-20T13:25:29;11.50;;;3.60;;
14316;SDS011;7242;50.858;6.586;2023-12-20T13:28:31;10.83;;;3.80;;
14316;SDS011;7242;50.858;6.586;2023-12-20T13:31:32;11.50;;;3.37;;
14316;SDS011;7242;50.858;6.586;2023-12-20T13:34:33;14.73;;;3.33;;
14316;SDS011;7242;50.858;6.586;2023-12-20T13:37:34;9.13;;;2.70;;
14316;SDS011;7242;50.858;6.586;2023-12-20T13:40:35;9.97;;;3.00;;
14316;SDS011;7242;50.858;6.586;2023-12-20T13:43:37;10.67;;;3.20;;
14316;SDS011;7242;50.858;6.586;2023-12-20T13:46:38;10.47;;;3.10;;
14316;SDS011;7242;50.858;6.586;2023-12-20T13:49:39;7.70;;;2.83;;
14316;SDS011;7242;50.858;6.586;2023-12-20T13:52:41;13.00;;;3.70;;
14316;SDS011;7242;50.858;6.586;2023-12-20T13:55:41;10.03;;;3.27;;
14316;SDS011;7242;50.858;6.586;2023-12-20T13:58:43;8.53;;;3.07;;
14316;SDS011;7242;50.858;6.586;2023-12-20T14:01:44;7.87;;;3.00;;
14316;SDS011;7242;50.858;6.586;2023-12-20T14:04:45;8.27;;;2.73;;
14316;SDS011;7242;50.858;6.586;2023-12-20T14:07:46;10.03;;;3.00;;
14316;SDS011;7242;50.858;6.586;2023-12-20T14:10:47;6.50;;;2.67;;
14316;SDS011;7242;50.858;6.586;2023-12-20T14:13:48;7.37;;;3.03;;
14316;SDS011;7242;50.858;6.586;2023-12-20T14:16:49;7.27;;;2.87;;
14316;SDS011;7242;50.858;6.586;2023-12-20T14:19:51;10.37;;;3.00;;
14316;SDS011;7242;50.858;6.586;2023-12-20T14:22:52;7.47;;;2.80;;
14316;SDS011;7242;50.858;6.586;2023-12-20T14:25:53;10.20;;;3.27;;
14316;SDS011;7242;50.858;6.586;2023-12-20T14:28:54;4.83;;;2.73;;
14316;SDS011;7242;50.858;6.586;2023-12-20T14:31:56;10.03;;;3.00;;
14316;SDS011;7242;50.858;6.586;2023-12-20T14:34:57;10.87;;;3.30;;
14316;SDS011;7242;50.858;6.586;2023-12-20T14:37:58;8.00;;;3.33;;
14316;SDS011;7242;50.858;6.586;2023-12-20T14:41:00;9.67;;;3.43;;
14316;SDS011;7242;50.858;6.586;2023-12-20T14:44:03;10.53;;;3.57;;
14316;SDS011;7242;50.858;6.586;2023-12-20T14:47:05;8.00;;;3.00;;
14316;SDS011;7242;50.858;6.586;2023-12-20T14:50:06;12.40;;;3.63;;
14316;SDS011;7242;50.858;6.586;2023-12-20T14:53:08;7.73;;;3.30;;
14316;SDS011;7242;50.858;6.586;2023-12-20T14:56:09;12.13;;;3.97;;
14316;SDS011;7242;50.858;6.586;2023-12-20T14:59:10;13.87;;;3.70;;
14316;SDS011;7242;50.858;6.586;2023-12-20T15:02:11;13.73;;;3.50;;
14316;SDS011;7242;50.858;6.586;2023-12-20T15:05:12;9.23;;;3.93;;
14316;SDS011;7242;50.858;6.586;2023-12-20T15:08:14;11.53;;;4.07;;
14316;SDS011;7242;50.858;6.586;2023-12-20T15:11:15;14.93;;;5.83;;
14316;SDS011;7242;50.858;6.586;2023-12-20T15:14:17;14.23;;;4.43;;
14316;SDS011;7242;50.858;6.586;2023-12-20T15:17:20;12.13;;;4.00;;
14316;SDS011;7242;50.858;6.586;2023-12-20T15:20:21;10.70;;;4.17;;
14316;SDS011;7242;50.858;6.586;2023-12-20T15:23:22;11.40;;;3.60;;
14316;SDS011;7242;50.858;6.586;2023-12-20T15:26:26;14.80;;;4.27;;
14316;SDS011;7242;50.858;6.586;2023-12-20T15:29:29;14.10;;;4.43;;
14316;SDS011;7242;50.858;6.586;2023-12-20T15:32:31;14.10;;;4.13;;
14316;SDS011;7242;50.858;6.586;2023-12-20T15:35:32;12.30;;;4.00;;
14316;SDS011;7242;50.858;6.586;2023-12-20T15:38:33;10.70;;;3.87;;
14316;SDS011;7242;50.858;6.586;2023-12-20T15:41:35;13.73;;;4.00;;
14316;SDS011;7242;50.858;6.586;2023-12-20T15:44:36;11.30;;;4.73;;
14316;SDS011;7242;50.858;6.586;2023-12-20T15:47:37;9.30;;;4.10;;
14316;SDS011;7242;50.858;6.586;2023-12-20T15:50:38;15.63;;;4.67;;
14316;SDS011;7242;50.858;6.586;2023-12-20T15:53:39;15.63;;;7.43;;
14316;SDS011;7242;50.858;6.586;2023-12-20T15:56:40;9.33;;;4.30;;
14316;SDS011;7242;50.858;6.586;2023-12-20T15:59:45;13.93;;;5.10;;
14316;SDS011;7242;50.858;6.586;2023-12-20T16:02:46;10.13;;;4.87;;
14316;SDS011;7242;50.858;6.586;2023-12-20T16:05:47;12.47;;;4.60;;
14316;SDS011;7242;50.858;6.586;2023-12-20T16:08:48;9.70;;;5.17;;
14316;SDS011;7242;50.858;6.586;2023-12-20T16:11:49;10.90;;;4.63;;
14316;SDS011;7242;50.858;6.586;2023-12-20T16:14:50;14.47;;;5.87;;
14316;SDS011;7242;50.858;6.586;2023-12-20T16:17:51;31.50;;;14.10;;
14316;SDS011;7242;50.858;6.586;2023-12-20T16:20:52;20.27;;;8.13;;
14316;SDS011;7242;50.858;6.586;2023-12-20T16:23:53;21.10;;;10.13;;
14316;SDS011;7242;50.858;6.586;2023-12-20T16:26:54;18.77;;;8.80;;
14316;SDS011;7242;50.858;6.586;2023-12-20T16:29:56;18.77;;;9.10;;
14316;SDS011;7242;50.858;6.586;2023-12-20T16:32:57;14.43;;;6.57;;
14316;SDS011;7242;50.858;6.586;2023-12-20T16:35:58;22.23;;;9.83;;
14316;SDS011;7242;50.858;6.586;2023-12-20T16:38:59;13.83;;;6.87;;
14316;SDS011;7242;50.858;6.586;2023-12-20T16:42:01;12.10;;;5.00;;
14316;SDS011;7242;50.858;6.586;2023-12-20T16:45:03;13.47;;;4.50;;
14316;SDS011;7242;50.858;6.586;2023-12-20T16:48:05;12.43;;;4.70;;
14316;SDS011;7242;50.858;6.586;2023-12-20T16:51:07;12.97;;;4.90;;
14316;SDS011;7242;50.858;6.586;2023-12-20T16:54:07;14.97;;;4.63;;
14316;SDS011;7242;50.858;6.586;2023-12-20T16:57:09;14.47;;;4.60;;
14316;SDS011;7242;50.858;6.586;2023-12-20T17:00:10;15.63;;;4.47;;
14316;SDS011;7242;50.858;6.586;2023-12-20T17:03:11;11.60;;;4.20;;
14316;SDS011;7242;50.858;6.586;2023-12-20T17:06:13;12.63;;;4.37;;
14316;SDS011;7242;50.858;6.586;2023-12-20T17:09:14;10.33;;;4.10;;
14316;SDS011;7242;50.858;6.586;2023-12-20T17:12:16;13.80;;;4.10;;
14316;SDS011;7242;50.858;6.586;2023-12-20T17:15:17;11.60;;;4.10;;
14316;SDS011;7242;50.858;6.586;2023-12-20T17:18:18;9.00;;;3.87;;
14316;SDS011;7242;50.858;6.586;2023-12-20T17:21:19;13.63;;;4.77;;
14316;SDS011;7242;50.858;6.586;2023-12-20T17:24:21;15.10;;;4.70;;
14316;SDS011;7242;50.858;6.586;2023-12-20T17:27:22;12.83;;;4.23;;
14316;SDS011;7242;50.858;6.586;2023-12-20T17:30:23;9.10;;;4.73;;
14316;SDS011;7242;50.858;6.586;2023-12-20T17:33:24;10.90;;;5.40;;
14316;SDS011;7242;50.858;6.586;2023-12-20T17:36:26;13.23;;;4.73;;
14316;SDS011;7242;50.858;6.586;2023-12-20T17:39:27;11.03;;;3.90;;
14316;SDS011;7242;50.858;6.586;2023-12-20T17:42:28;11.80;;;4.10;;
14316;SDS011;7242;50.858;6.586;2023-12-20T17:45:29;9.37;;;3.70;;
14316;SDS011;7242;50.858;6.586;2023-12-20T17:48:30;10.00;;;3.80;;
14316;SDS011;7242;50.858;6.586;2023-12-20T17:51:30;10.47;;;4.27;;
14316;SDS011;7242;50.858;6.586;2023-12-20T17:54:32;8.80;;;4.30;;
14316;SDS011;7242;50.858;6.586;2023-12-20T17:57:34;10.10;;;4.20;;
14316;SDS011;7242;50.858;6.586;2023-12-20T18:00:35;13.87;;;4.60;;
14316;SDS011;7242;50.858;6.586;2023-12-20T18:03:37;9.70;;;4.43;;
14316;SDS011;7242;50.858;6.586;2023-12-20T18:06:39;10.77;;;4.83;;
14316;SDS011;7242;50.858;6.586;2023-12-20T18:09:40;14.13;;;5.57;;
14316;SDS011;7242;50.858;6.586;2023-12-20T18:12:42;10.37;;;4.40;;
14316;SDS011;7242;50.858;6.586;2023-12-20T18:15:44;9.80;;;4.60;;
14316;SDS011;7242;50.858;6.586;2023-12-20T18:18:45;11.93;;;5.03;;
14316;SDS011;7242;50.858;6.586;2023-12-20T18:21:47;9.60;;;4.43;;
14316;SDS011;7242;50.858;6.586;2023-12-20T18:24:49;8.80;;;4.70;;